Time;durP1;ratioP1;P1;durP2;ratioP2;P2;SDS_P1;SDS_P2;PMS_P1;PMS_P2;Temp;Humidity;BMP_temperature;BMP_pressure;BME280_temperature;BME280_humidity;BME280_pressure;Samples;Min_cycle;Max_cycle;Signal;HPM_P1;HPM_P2
2021/05/19 00:02:10;;;;;;;3.63;2.35;;;8.60;99.90;;;;;;5068550;28;20575;-68
2021/05/19 00:04:37;;;;;;;2.30;2.10;;;8.60;99.90;;;;;;5068323;28;20196;-67
2021/05/19 00:07:04;;;;;;;2.88;2.58;;;8.60;99.90;;;;;;5068332;28;20321;-69
2021/05/19 00:09:30;;;;;;;6.32;2.15;;;8.60;99.90;;;;;;5067928;28;20205;-68
2021/05/19 00:11:57;;;;;;;2.65;2.25;;;8.50;99.90;;;;;;5068096;28;20204;-68
2021/05/19 00:14:23;;;;;;;3.42;2.10;;;8.60;99.90;;;;;;5068016;28;20329;-68
2021/05/19 00:16:50;;;;;;;3.17;2.83;;;8.60;99.90;;;;;;5067821;28;20236;-68
2021/05/19 00:19:18;;;;;;;2.22;2.03;;;8.60;99.90;;;;;;5067988;28;20610;-68
2021/05/19 00:21:46;;;;;;;2.33;2.13;;;8.60;99.90;;;;;;5068084;28;20209;-69
2021/05/19 00:24:12;;;;;;;2.42;2.22;;;8.60;99.90;;;;;;5068000;28;20668;-67
2021/05/19 00:26:39;;;;;;;2.65;2.05;;;8.60;99.90;;;;;;5067864;28;20639;-69
2021/05/19 00:29:09;;;;;;;2.60;2.28;;;8.60;99.90;;;;;;5067643;28;20227;-68
2021/05/19 00:31:35;;;;;;;2.30;2.15;;;8.60;99.90;;;;;;5068820;28;20212;-69
2021/05/19 00:34:06;;;;;;;3.25;2.15;;;8.60;99.90;;;;;;5070270;28;20220;-68
2021/05/19 00:36:32;;;;;;;2.67;2.40;;;8.60;99.90;;;;;;5070034;28;20730;-67
2021/05/19 00:38:59;;;;;;;3.95;2.17;;;8.60;99.90;;;;;;5070543;28;20227;-68
2021/05/19 00:41:26;;;;;;;2.30;2.10;;;8.60;99.90;;;;;;5070548;28;20262;-68
2021/05/19 00:44:02;;;;;;;2.63;2.42;;;8.60;99.90;;;;;;5070885;28;20197;-68
2021/05/19 00:46:28;;;;;;;2.67;2.40;;;8.60;99.90;;;;;;5070399;28;20656;-68
2021/05/19 00:48:54;;;;;;;2.92;2.67;;;8.70;99.90;;;;;;5070115;28;20199;-68
2021/05/19 00:51:21;;;;;;;2.50;2.30;;;8.70;99.90;;;;;;5070292;28;20254;-69
2021/05/19 00:53:47;;;;;;;2.50;2.30;;;8.60;99.90;;;;;;5070682;28;20361;-69
2021/05/19 00:56:15;;;;;;;2.38;2.17;;;8.60;99.90;;;;;;5070559;28;20216;-69
2021/05/19 00:58:42;;;;;;;3.67;2.25;;;8.60;99.90;;;;;;5070191;28;20204;-69
2021/05/19 01:01:09;;;;;;;2.65;2.38;;;8.60;99.90;;;;;;5070495;28;20297;-68
2021/05/19 01:03:37;;;;;;;2.50;2.30;;;8.60;99.90;;;;;;5070386;28;20199;-68
2021/05/19 01:06:07;;;;;;;2.13;1.92;;;8.60;99.90;;;;;;5070529;28;20303;-69
2021/05/19 01:11:19;;;;;;;3.15;2.50;;;8.60;99.90;;;;;;5070434;28;20206;-68
2021/05/19 01:13:46;;;;;;;2.40;2.20;;;8.60;99.90;;;;;;5070156;28;20297;-68
2021/05/19 01:16:14;;;;;;;3.08;2.63;;;8.60;99.90;;;;;;5070297;28;20240;-69
2021/05/19 01:18:41;;;;;;;3.25;2.25;;;8.60;99.90;;;;;;5069940;28;20277;-69
2021/05/19 01:21:08;;;;;;;3.63;2.47;;;8.70;99.90;;;;;;5070409;28;20223;-69
2021/05/19 01:23:37;;;;;;;2.60;2.20;;;8.60;99.90;;;;;;5070111;28;20196;-69
2021/05/19 01:26:05;;;;;;;1.90;1.80;;;8.60;99.90;;;;;;5070139;28;20314;-68
2021/05/19 01:28:32;;;;;;;2.17;1.98;;;8.60;99.90;;;;;;5069862;28;20295;-69
2021/05/19 01:30:58;;;;;;;2.95;2.03;;;8.60;99.90;;;;;;5070239;28;20303;-68
2021/05/19 01:33:25;;;;;;;2.45;2.25;;;8.70;99.90;;;;;;5073900;28;20786;-68
2021/05/19 01:35:51;;;;;;;2.30;2.10;;;8.70;99.90;;;;;;5073956;28;20227;-68
2021/05/19 01:38:18;;;;;;;2.35;2.17;;;8.70;99.90;;;;;;5073761;28;20423;-69
2021/05/19 01:40:45;;;;;;;2.38;2.17;;;8.70;99.90;;;;;;5074170;28;20201;-69
2021/05/19 01:43:12;;;;;;;2.30;2.10;;;8.70;99.90;;;;;;5073906;28;20192;-68
2021/05/19 01:45:38;;;;;;;2.25;2.08;;;8.60;99.90;;;;;;5073840;28;20677;-69
2021/05/19 01:48:09;;;;;;;2.95;2.30;;;8.70;99.90;;;;;;5073522;28;20239;-69
2021/05/19 01:50:36;;;;;;;3.10;2.50;;;8.70;99.90;;;;;;5073803;28;20295;-68
2021/05/19 01:53:05;;;;;;;1.98;1.77;;;8.70;99.90;;;;;;5073579;28;20204;-69
2021/05/19 01:55:31;;;;;;;3.25;1.90;;;8.70;99.90;;;;;;5073544;28;20319;-69
2021/05/19 01:57:58;;;;;;;2.85;2.40;;;8.60;99.90;;;;;;5073163;28;20238;-69
2021/05/19 02:00:26;;;;;;;4.40;2.25;;;8.60;99.90;;;;;;5073645;28;20205;-68
2021/05/19 02:02:58;;;;;;;2.60;2.40;;;8.60;99.90;;;;;;5073662;28;20204;-68
2021/05/19 02:05:26;;;;;;;3.42;2.38;;;8.50;99.90;;;;;;5073152;28;20234;-69
2021/05/19 02:07:53;;;;;;;2.55;2.35;;;8.50;99.90;;;;;;5073389;28;20200;-69
2021/05/19 02:10:20;;;;;;;4.65;2.45;;;8.60;99.90;;;;;;5073137;28;20291;-68
2021/05/19 02:12:46;;;;;;;2.72;1.95;;;8.60;99.90;;;;;;5073648;28;20207;-69
2021/05/19 02:15:16;;;;;;;2.50;2.30;;;8.60;99.90;;;;;;5072889;28;20225;-69
2021/05/19 02:17:43;;;;;;;3.15;2.78;;;8.60;99.90;;;;;;5073137;28;20211;-68
2021/05/19 02:20:11;;;;;;;3.83;2.80;;;8.60;99.90;;;;;;5073271;28;20212;-68
2021/05/19 02:22:38;;;;;;;2.13;1.95;;;8.60;99.90;;;;;;5073153;28;20235;-69
2021/05/19 02:25:05;;;;;;;2.00;1.90;;;8.60;99.90;;;;;;5073270;28;20211;-68
2021/05/19 02:27:32;;;;;;;2.00;1.90;;;8.60;99.90;;;;;;5072968;28;20284;-68
2021/05/19 02:29:59;;;;;;;2.20;2.00;;;8.50;99.90;;;;;;5073002;28;20818;-68
2021/05/19 02:32:27;;;;;;;2.15;1.95;;;8.50;99.90;;;;;;5072689;28;20668;-67
2021/05/19 02:34:53;;;;;;;2.30;2.10;;;8.60;99.90;;;;;;5072947;28;20220;-68
2021/05/19 02:37:20;;;;;;;2.25;2.15;;;8.50;99.90;;;;;;5072785;28;20224;-68
2021/05/19 02:39:46;;;;;;;1.95;1.85;;;8.50;99.90;;;;;;5072752;28;20563;-68
2021/05/19 02:42:13;;;;;;;2.35;2.15;;;8.50;99.90;;;;;;5072330;28;20759;-68
2021/05/19 02:44:39;;;;;;;4.38;2.47;;;8.50;99.90;;;;;;5072134;28;20723;-68
2021/05/19 02:47:06;;;;;;;2.63;2.30;;;8.50;99.90;;;;;;5072900;28;20220;-68
2021/05/19 02:49:34;;;;;;;3.33;2.75;;;8.50;99.90;;;;;;5072219;28;20738;-68
2021/05/19 02:52:00;;;;;;;2.90;1.90;;;8.50;99.90;;;;;;5073008;28;20295;-68
2021/05/19 02:54:27;;;;;;;3.50;2.67;;;8.50;99.90;;;;;;5072553;28;20221;-69
2021/05/19 02:56:53;;;;;;;2.47;2.28;;;8.40;99.90;;;;;;5072630;28;20307;-68
2021/05/19 02:59:20;;;;;;;2.30;2.10;;;8.40;99.90;;;;;;5072367;28;20291;-68
2021/05/19 03:01:47;;;;;;;3.13;2.30;;;8.30;99.90;;;;;;5072550;28;20196;-68
2021/05/19 03:04:13;;;;;;;3.00;2.42;;;8.30;99.90;;;;;;5072578;28;20196;-67
2021/05/19 03:06:41;;;;;;;2.17;2.05;;;8.30;99.90;;;;;;5072229;28;20260;-69
2021/05/19 03:09:07;;;;;;;2.40;2.20;;;8.30;99.90;;;;;;5072205;28;20289;-69
2021/05/19 03:11:34;;;;;;;2.60;2.40;;;8.30;99.90;;;;;;5072311;28;20204;-68
2021/05/19 03:14:01;;;;;;;2.42;2.22;;;8.40;99.90;;;;;;5072327;28;20232;-69
2021/05/19 03:16:28;;;;;;;2.58;2.20;;;8.40;99.90;;;;;;5071952;28;20239;-69
2021/05/19 03:18:55;;;;;;;1.80;1.70;;;8.40;99.90;;;;;;5071858;28;20744;-67
2021/05/19 03:21:22;;;;;;;3.22;1.85;;;8.40;99.90;;;;;;5071980;28;20196;-69
2021/05/19 03:23:49;;;;;;;3.20;2.20;;;8.50;99.90;;;;;;5072105;28;20206;-69
2021/05/19 03:26:16;;;;;;;2.30;2.10;;;8.40;99.90;;;;;;5071852;28;20228;-68
2021/05/19 03:28:43;;;;;;;2.08;1.90;;;8.40;99.90;;;;;;5071634;28;20208;-69
2021/05/19 03:31:11;;;;;;;2.17;1.95;;;8.40;99.90;;;;;;5071741;28;20206;-69
2021/05/19 03:33:37;;;;;;;2.65;2.00;;;8.40;99.90;;;;;;5071229;28;20323;-69
2021/05/19 03:36:05;;;;;;;2.55;2.35;;;8.40;99.90;;;;;;5071693;28;20224;-68
2021/05/19 03:38:32;;;;;;;2.20;2.00;;;8.40;99.90;;;;;;5071387;28;20208;-69
2021/05/19 03:40:59;;;;;;;2.08;1.92;;;8.40;99.90;;;;;;5071859;28;20200;-69
2021/05/19 03:43:25;;;;;;;2.05;1.85;;;8.40;99.90;;;;;;5071557;28;20193;-69
2021/05/19 03:45:52;;;;;;;2.33;2.13;;;8.40;99.90;;;;;;5071707;28;20622;-69
2021/05/19 03:48:18;;;;;;;2.25;1.98;;;8.30;99.90;;;;;;5071254;28;20582;-68
2021/05/19 03:50:45;;;;;;;2.15;1.98;;;8.40;99.90;;;;;;5071269;28;20199;-68
2021/05/19 03:53:12;;;;;;;2.20;2.10;;;8.40;99.90;;;;;;5071473;28;20230;-69
2021/05/19 03:55:38;;;;;;;3.00;2.70;;;8.40;99.90;;;;;;5069388;28;20461;-69
2021/05/19 03:58:06;;;;;;;5.50;2.25;;;8.40;99.90;;;;;;5069681;28;20287;-68
2021/05/19 04:00:35;;;;;;;2.10;1.90;;;8.40;99.90;;;;;;5069358;28;20203;-68
2021/05/19 04:03:02;;;;;;;3.70;2.60;;;8.40;99.90;;;;;;5071404;28;20204;-68
2021/05/19 04:05:34;;;;;;;2.17;1.98;;;8.30;99.90;;;;;;5070831;28;20603;-68
2021/05/19 04:08:00;;;;;;;2.72;2.10;;;8.40;99.90;;;;;;5070999;28;20253;-68
2021/05/19 04:10:27;;;;;;;2.35;2.15;;;8.40;99.90;;;;;;5071026;28;20290;-67
2021/05/19 04:12:53;;;;;;;3.03;2.38;;;8.50;99.90;;;;;;5070349;28;20199;-69
2021/05/19 04:15:22;;;;;;;2.60;2.40;;;8.50;99.90;;;;;;5069928;28;20220;-68
2021/05/19 04:17:48;;;;;;;2.83;2.50;;;8.40;99.90;;;;;;5070663;28;20799;-67
2021/05/19 04:20:15;;;;;;;2.85;2.60;;;8.50;99.90;;;;;;5070446;28;20207;-68
2021/05/19 04:22:42;;;;;;;2.80;2.50;;;8.50;99.90;;;;;;5071058;28;20233;-68
2021/05/19 04:25:09;;;;;;;2.30;2.10;;;8.50;99.90;;;;;;5070354;28;20196;-68
2021/05/19 04:27:35;;;;;;;2.60;2.40;;;8.50;99.90;;;;;;5070209;28;20738;-67
2021/05/19 04:30:01;;;;;;;2.40;2.20;;;8.50;99.90;;;;;;5069853;28;20292;-69
2021/05/19 04:32:28;;;;;;;3.40;2.70;;;8.50;99.90;;;;;;5069242;28;20715;-67
2021/05/19 04:34:54;;;;;;;2.88;2.60;;;8.50;99.90;;;;;;5070788;28;20757;-67
2021/05/19 04:37:21;;;;;;;3.20;2.40;;;8.60;99.90;;;;;;5070381;28;20230;-68
2021/05/19 04:39:47;;;;;;;3.22;2.60;;;8.60;99.90;;;;;;5070700;28;20208;-68
2021/05/19 04:42:13;;;;;;;3.33;3.05;;;8.50;99.90;;;;;;5070707;28;20250;-68
2021/05/19 04:44:39;;;;;;;2.90;2.70;;;8.60;99.90;;;;;;5070681;28;20197;-68
2021/05/19 04:47:05;;;;;;;3.20;2.90;;;8.60;99.90;;;;;;5070236;28;20270;-68
2021/05/19 04:49:32;;;;;;;3.20;2.90;;;8.60;99.90;;;;;;5070072;28;20298;-68
2021/05/19 04:51:59;;;;;;;2.30;2.10;;;8.70;99.90;;;;;;5070777;28;20201;-68
2021/05/19 04:54:25;;;;;;;2.90;2.70;;;8.70;99.90;;;;;;5070281;28;20582;-67
2021/05/19 04:56:51;;;;;;;3.00;2.80;;;8.70;99.90;;;;;;5070800;28;20305;-68
2021/05/19 04:59:17;;;;;;;5.07;2.75;;;8.70;99.90;;;;;;5069943;28;20674;-68
2021/05/19 05:01:43;;;;;;;3.00;2.80;;;8.70;99.90;;;;;;5070885;28;20200;-67
2021/05/19 05:04:10;;;;;;;3.60;2.83;;;8.80;99.90;;;;;;5070449;28;20266;-68
2021/05/19 05:06:37;;;;;;;4.13;2.80;;;8.80;99.90;;;;;;5069639;28;20232;-67
2021/05/19 05:09:04;;;;;;;3.03;2.72;;;8.80;99.90;;;;;;5070450;28;20196;-68
2021/05/19 05:11:30;;;;;;;3.00;2.70;;;8.80;99.90;;;;;;5070080;28;20204;-68
2021/05/19 05:13:56;;;;;;;3.50;3.20;;;8.80;99.90;;;;;;5070500;28;20224;-68
2021/05/19 05:16:22;;;;;;;4.30;3.40;;;8.80;99.90;;;;;;5070161;28;20227;-68
2021/05/19 05:18:49;;;;;;;3.05;2.75;;;8.90;99.90;;;;;;5070333;28;20196;-68
2021/05/19 05:21:15;;;;;;;2.97;2.70;;;8.90;99.90;;;;;;5070653;28;20300;-67
2021/05/19 05:23:42;;;;;;;3.05;2.80;;;9.00;99.90;;;;;;5070555;28;20196;-68
2021/05/19 05:26:08;;;;;;;5.80;3.40;;;9.00;99.90;;;;;;5070990;28;20227;-68
2021/05/19 05:28:35;;;;;;;5.22;3.20;;;9.00;99.90;;;;;;5069631;28;20212;-68
2021/05/19 05:31:01;;;;;;;3.60;2.85;;;9.10;99.90;;;;;;5070313;28;20204;-68
2021/05/19 05:33:27;;;;;;;3.88;3.47;;;9.10;99.90;;;;;;5069470;28;20196;-68
2021/05/19 05:35:53;;;;;;;3.97;3.00;;;9.10;99.90;;;;;;5070194;28;20220;-69
2021/05/19 05:38:20;;;;;;;3.60;3.15;;;9.20;99.90;;;;;;5069546;28;20825;-68
2021/05/19 05:40:47;;;;;;;2.80;2.50;;;9.30;99.90;;;;;;5070169;28;20204;-68
2021/05/19 05:43:13;;;;;;;3.33;2.85;;;9.30;99.90;;;;;;5070063;28;20208;-68
2021/05/19 05:45:39;;;;;;;3.47;3.17;;;9.40;99.90;;;;;;5069908;28;20231;-69
2021/05/19 05:48:06;;;;;;;3.85;3.35;;;9.40;99.90;;;;;;5069919;28;20613;-68
2021/05/19 05:50:32;;;;;;;3.25;2.97;;;9.50;99.90;;;;;;5069764;28;20204;-67
2021/05/19 05:52:59;;;;;;;3.80;3.50;;;9.60;99.90;;;;;;5070122;28;20201;-68
2021/05/19 05:55:25;;;;;;;3.85;2.90;;;9.70;99.90;;;;;;5069747;28;20228;-68
2021/05/19 05:57:52;;;;;;;5.28;3.45;;;9.80;99.90;;;;;;5069451;28;20694;-68
2021/05/19 06:00:20;;;;;;;3.85;3.55;;;9.80;99.90;;;;;;5069045;28;20211;-68
2021/05/19 06:02:46;;;;;;;4.32;3.63;;;9.90;99.90;;;;;;5067909;28;20200;-68
2021/05/19 06:05:13;;;;;;;5.07;3.97;;;9.90;99.90;;;;;;5064321;28;20879;-68
2021/05/19 06:07:40;;;;;;;4.65;4.25;;;9.90;99.90;;;;;;5065227;28;20196;-68
2021/05/19 06:10:08;;;;;;;4.07;3.70;;;10.00;99.90;;;;;;5068600;28;20212;-69
2021/05/19 06:12:34;;;;;;;4.90;3.92;;;10.00;99.90;;;;;;5067324;28;20259;-69
2021/05/19 06:15:02;;;;;;;5.70;3.85;;;10.10;99.90;;;;;;5068569;28;20783;-68
2021/05/19 06:17:28;;;;;;;4.03;3.70;;;10.10;99.90;;;;;;5067569;28;20247;-68
2021/05/19 06:19:54;;;;;;;5.05;3.83;;;10.20;99.90;;;;;;5072070;28;20286;-68
2021/05/19 06:22:20;;;;;;;4.18;3.75;;;10.20;99.90;;;;;;5072060;28;20204;-68
2021/05/19 06:24:47;;;;;;;4.57;3.10;;;10.10;99.90;;;;;;5071816;28;20208;-68
2021/05/19 06:27:14;;;;;;;4.63;3.25;;;10.10;99.90;;;;;;5070711;28;20964;-68
2021/05/19 06:29:40;;;;;;;3.72;3.42;;;10.20;99.90;;;;;;5071802;28;20208;-68
2021/05/19 06:32:08;;;;;;;4.72;2.92;;;10.30;99.90;;;;;;5072177;28;20216;-69
2021/05/19 06:34:36;;;;;;;5.13;3.63;;;10.40;99.90;;;;;;5072398;28;20228;-68
2021/05/19 06:37:02;;;;;;;3.85;3.55;;;10.50;99.90;;;;;;5070892;28;20271;-68
2021/05/19 06:39:29;;;;;;;5.13;3.40;;;10.70;99.90;;;;;;5071392;28;20705;-68
2021/05/19 06:41:55;;;;;;;5.10;3.10;;;10.80;99.90;;;;;;5072126;28;20728;-68
2021/05/19 06:44:21;;;;;;;3.65;3.13;;;11.00;99.90;;;;;;5071749;28;20196;-69
2021/05/19 06:46:47;;;;;;;3.80;3.50;;;11.10;99.90;;;;;;5071160;28;20216;-69
2021/05/19 06:49:14;;;;;;;3.42;3.17;;;11.20;99.90;;;;;;5071671;28;20208;-68
2021/05/19 06:51:42;;;;;;;3.17;2.88;;;11.20;99.90;;;;;;5071898;28;20333;-69
2021/05/19 06:54:09;;;;;;;5.50;2.95;;;11.40;99.90;;;;;;5071365;28;20224;-69
2021/05/19 06:56:35;;;;;;;3.53;3.22;;;11.50;99.90;;;;;;5070486;28;20220;-68
2021/05/19 06:59:02;;;;;;;3.00;2.70;;;11.60;99.90;;;;;;5071031;28;20225;-66
2021/05/19 07:01:28;;;;;;;3.60;2.72;;;11.60;99.90;;;;;;5070433;28;20204;-69
2021/05/19 07:03:55;;;;;;;3.15;2.80;;;11.60;99.90;;;;;;5071562;28;20568;-68
2021/05/19 07:06:22;;;;;;;2.95;2.28;;;11.70;99.90;;;;;;5069669;28;20220;-68
2021/05/19 07:08:49;;;;;;;2.67;2.47;;;11.80;99.90;;;;;;5071531;28;20250;-68
2021/05/19 07:11:15;;;;;;;4.13;2.30;;;12.00;99.90;;;;;;5070863;28;20204;-68
2021/05/19 07:13:41;;;;;;;5.82;2.45;;;12.20;99.90;;;;;;5071273;28;20211;-69
2021/05/19 07:16:08;;;;;;;2.83;2.47;;;12.30;99.90;;;;;;5070223;28;20305;-68
2021/05/19 07:18:34;;;;;;;3.17;2.35;;;12.50;99.90;;;;;;5069833;28;20208;-68
2021/05/19 07:21:00;;;;;;;2.03;1.88;;;12.60;99.90;;;;;;5071419;28;20223;-69
2021/05/19 07:23:27;;;;;;;3.70;2.43;;;12.70;99.90;;;;;;5070340;28;20211;-69
2021/05/19 07:25:53;;;;;;;2.55;2.28;;;12.60;99.90;;;;;;5071191;28;20477;-68
2021/05/19 07:28:20;;;;;;;7.38;2.17;;;12.40;99.90;;;;;;5068820;28;20201;-68
2021/05/19 07:30:48;;;;;;;2.70;2.47;;;12.30;99.90;;;;;;5064250;28;20208;-68
2021/05/19 07:33:15;;;;;;;3.47;2.30;;;12.20;99.90;;;;;;5061339;28;20204;-66
2021/05/19 07:35:43;;;;;;;2.47;2.28;;;12.20;99.90;;;;;;5060148;28;20342;-67
2021/05/19 07:38:11;;;;;;;3.65;2.95;;;12.10;99.90;;;;;;5069748;28;20204;-68
2021/05/19 07:40:39;;;;;;;6.15;3.30;;;12.00;99.90;;;;;;5070665;28;20204;-68
2021/05/19 07:43:05;;;;;;;9.00;2.88;;;12.00;99.90;;;;;;5070569;28;20205;-68
2021/05/19 07:45:32;;;;;;;4.38;2.22;;;12.10;99.90;;;;;;5068511;28;20224;-69
2021/05/19 07:47:58;;;;;;;2.40;2.20;;;12.20;99.90;;;;;;5065274;28;20257;-68
2021/05/19 07:50:25;;;;;;;2.53;2.15;;;12.20;99.90;;;;;;5070050;28;20215;-68
2021/05/19 07:52:51;;;;;;;2.70;2.47;;;12.40;99.90;;;;;;5070248;28;20196;-67
2021/05/19 07:55:22;;;;;;;2.58;2.38;;;12.60;99.90;;;;;;5069662;28;20364;-68
2021/05/19 07:57:51;;;;;;;3.13;2.65;;;12.70;99.90;;;;;;5069250;28;20204;-69
2021/05/19 08:00:25;;;;;;;2.87;2.67;;;12.80;99.90;;;;;;5069684;28;20596;-68
2021/05/19 08:02:51;;;;;;;3.10;2.60;;;12.70;99.90;;;;;;5070322;28;20482;-67
2021/05/19 08:05:18;;;;;;;4.45;2.67;;;12.50;99.90;;;;;;5069458;28;20204;-67
2021/05/19 08:07:44;;;;;;;3.70;2.58;;;12.40;99.90;;;;;;5068815;28;20224;-68
2021/05/19 08:10:11;;;;;;;2.88;2.67;;;12.50;99.90;;;;;;5069910;28;20200;-68
2021/05/19 08:12:38;;;;;;;2.80;2.30;;;12.40;99.90;;;;;;5069954;28;20221;-69
2021/05/19 08:15:06;;;;;;;2.60;2.40;;;12.50;99.90;;;;;;5068416;28;20224;-67
2021/05/19 08:17:33;;;;;;;5.72;2.40;;;12.60;99.90;;;;;;5070111;28;20604;-68
2021/05/19 08:19:59;;;;;;;4.95;2.83;;;12.70;99.90;;;;;;5070327;28;20200;-68
2021/05/19 08:22:25;;;;;;;2.97;2.33;;;12.80;99.90;;;;;;5070511;28;20717;-69
2021/05/19 08:24:51;;;;;;;3.95;2.42;;;13.00;99.90;;;;;;5069689;28;20242;-69
2021/05/19 08:27:18;;;;;;;2.80;2.50;;;13.20;99.90;;;;;;5070177;28;20597;-68
2021/05/19 08:29:45;;;;;;;2.63;2.00;;;13.30;99.90;;;;;;5070119;28;20207;-68
2021/05/19 08:32:13;;;;;;;3.15;2.95;;;13.40;99.90;;;;;;5070677;28;20196;-69
2021/05/19 08:34:39;;;;;;;3.33;3.00;;;13.50;99.90;;;;;;5070139;28;20224;-68
2021/05/19 08:37:05;;;;;;;3.50;2.57;;;13.40;99.90;;;;;;5070731;28;20733;-67
2021/05/19 08:39:31;;;;;;;4.37;2.90;;;13.40;99.90;;;;;;5069924;28;20546;-69
2021/05/19 08:41:58;;;;;;;2.47;2.28;;;13.40;99.90;;;;;;5070053;28;20977;-68
2021/05/19 08:44:24;;;;;;;3.13;2.83;;;13.30;99.90;;;;;;5069202;28;20195;-69
2021/05/19 08:46:55;;;;;;;2.90;2.67;;;13.30;99.90;;;;;;5063009;28;20494;-68
2021/05/19 08:49:24;;;;;;;3.33;2.63;;;13.30;99.90;;;;;;5062699;28;20497;-69
2021/05/19 08:51:50;;;;;;;2.60;2.40;;;13.40;99.90;;;;;;5069967;28;20462;-68
2021/05/19 08:54:17;;;;;;;6.30;2.67;;;13.50;99.90;;;;;;5070296;28;20817;-68
2021/05/19 08:56:45;;;;;;;4.63;2.87;;;13.60;99.90;;;;;;5070529;28;20481;-68
2021/05/19 08:59:12;;;;;;;2.67;2.47;;;13.60;99.90;;;;;;5070149;28;20458;-68
2021/05/19 09:01:43;;;;;;;3.90;2.30;;;13.80;99.90;;;;;;5070513;28;20462;-69
2021/05/19 09:04:15;;;;;;;4.60;2.60;;;14.00;99.90;;;;;;5070464;28;20473;-68
2021/05/19 09:06:43;;;;;;;2.70;2.43;;;14.20;99.90;;;;;;5070134;28;20944;-68
2021/05/19 09:09:26;;;;;;;2.60;2.20;;;14.50;99.90;;;;;;5069585;28;20834;-68
2021/05/19 09:11:57;;;;;;;3.83;2.37;;;14.90;99.90;;;;;;5070510;28;20458;-68
2021/05/19 09:14:23;;;;;;;2.80;1.93;;;14.90;99.90;;;;;;5069881;28;20482;-69
2021/05/19 09:16:50;;;;;;;3.30;2.37;;;15.00;99.90;;;;;;5068939;28;20839;-68
2021/05/19 09:19:32;;;;;;;3.53;2.40;;;14.90;99.90;;;;;;5069625;28;20834;-68
2021/05/19 09:21:59;;;;;;;3.30;2.03;;;15.00;99.90;;;;;;5070117;28;20466;-68
2021/05/19 09:24:34;;;;;;;2.70;1.80;;;15.10;99.90;;;;;;5069138;28;20465;-68
2021/05/19 09:27:03;;;;;;;2.30;1.67;;;15.20;99.90;;;;;;5070127;28;20538;-68
2021/05/19 09:29:31;;;;;;;2.37;1.73;;;15.20;99.90;;;;;;5069443;28;20984;-69
2021/05/19 09:31:59;;;;;;;2.20;1.80;;;15.40;99.90;;;;;;5070014;28;20470;-69
2021/05/19 09:34:27;;;;;;;2.13;1.60;;;15.50;99.90;;;;;;5069667;28;20486;-69
2021/05/19 09:37:03;;;;;;;2.30;1.63;;;15.50;99.90;;;;;;5070036;28;20483;-68
2021/05/19 09:39:44;;;;;;;1.60;1.50;;;15.40;99.90;;;;;;5069273;28;20466;-69
2021/05/19 09:42:10;;;;;;;4.80;1.80;;;15.50;99.90;;;;;;5070023;28;20462;-68
2021/05/19 09:44:36;;;;;;;2.13;1.60;;;15.70;99.90;;;;;;5069496;28;20463;-68
2021/05/19 09:47:03;;;;;;;6.87;1.63;;;15.80;99.90;;;;;;5069590;28;20478;-68
2021/05/19 09:49:29;;;;;;;1.67;1.50;;;15.90;99.90;;;;;;5069226;28;20462;-68
2021/05/19 09:51:57;;;;;;;3.17;1.80;;;16.00;99.90;;;;;;5070181;28;20465;-68
2021/05/19 09:54:25;;;;;;;2.27;1.50;;;16.00;99.90;;;;;;5073329;28;20520;-68
2021/05/19 09:56:56;;;;;;;1.87;1.53;;;16.20;99.90;;;;;;5073556;28;20955;-67
2021/05/19 09:59:23;;;;;;;2.43;1.40;;;16.50;99.80;;;;;;5072988;28;20953;-68
2021/05/19 10:01:50;;;;;;;1.50;1.10;;;16.40;99.40;;;;;;5072830;28;20456;-68
2021/05/19 10:04:18;;;;;;;3.10;1.43;;;16.20;99.00;;;;;;5073214;28;20462;-68
2021/05/19 10:06:46;;;;;;;1.60;1.30;;;16.20;99.00;;;;;;5073422;28;20486;-68
2021/05/19 10:09:12;;;;;;;1.63;1.10;;;16.50;99.90;;;;;;5072785;28;20946;-68
2021/05/19 10:11:38;;;;;;;1.20;1.00;;;16.90;99.80;;;;;;5073163;28;20458;-68
2021/05/19 10:14:10;;;;;;;2.00;1.10;;;17.10;96.40;;;;;;5073462;28;20502;-68
2021/05/19 10:16:37;;;;;;;2.37;1.20;;;16.90;95.70;;;;;;5071972;28;20489;-68
2021/05/19 10:19:05;;;;;;;1.90;1.50;;;16.80;96.80;;;;;;5072884;28;20831;-69
2021/05/19 10:21:36;;;;;;;6.57;1.73;;;17.10;94.10;;;;;;5072872;28;20468;-68
2021/05/19 10:24:05;;;;;;;1.10;1.00;;;17.30;95.60;;;;;;5072060;28;20834;-68
2021/05/19 10:26:33;;;;;;;1.70;1.03;;;17.60;96.60;;;;;;5072814;28;20486;-68
2021/05/19 10:29:00;;;;;;;2.07;1.00;;;17.80;94.30;;;;;;5093228;22;20482;-68
2021/05/19 10:31:29;;;;;;;1.50;1.00;;;18.10;94.40;;;;;;5054848;28;20478;-68
2021/05/19 10:33:57;;;;;;;1.43;1.17;;;18.30;93.70;;;;;;5052536;28;20451;-68
2021/05/19 10:36:41;;;;;;;1.93;1.00;;;18.60;90.50;;;;;;5052660;28;20893;-69
2021/05/19 10:39:27;;;;;;;1.20;1.10;;;18.60;90.50;;;;;;5052080;28;20483;-68
2021/05/19 10:41:54;;;;;;;1.40;1.30;;;18.60;86.60;;;;;;5053260;28;20870;-69
2021/05/19 10:44:22;;;;;;;2.70;1.10;;;18.80;84.30;;;;;;5052522;28;20459;-68
2021/05/19 10:47:02;;;;;;;1.77;1.20;;;18.90;92.60;;;;;;5052467;28;20461;-68
2021/05/19 10:50:01;;;;;;;1.43;1.10;;;19.10;85.50;;;;;;5052166;28;20536;-68
2021/05/19 10:52:36;;;;;;;2.27;1.13;;;19.20;88.70;;;;;;5052479;28;20497;-67
2021/05/19 10:57:50;;;;;;;1.63;1.10;;;19.20;86.90;;;;;;5071867;28;20973;-68
2021/05/19 11:00:21;;;;;;;1.77;1.10;;;19.20;86.20;;;;;;5071962;28;20467;-68
2021/05/19 11:03:11;;;;;;;5.40;1.37;;;18.90;85.80;;;;;;5072263;28;20466;-68
2021/05/19 11:06:00;;;;;;;1.80;1.17;;;18.50;88.00;;;;;;5071019;28;20467;-68
2021/05/19 11:08:28;;;;;;;1.33;1.20;;;18.00;88.80;;;;;;5071525;28;20489;-67
2021/05/19 11:11:13;;;;;;;1.80;1.30;;;18.10;87.50;;;;;;5072220;28;20528;-68
2021/05/19 11:14:09;;;;;;;1.67;1.57;;;18.50;89.70;;;;;;5072298;28;20466;-69
2021/05/19 11:16:50;;;;;;;1.63;1.20;;;19.10;88.80;;;;;;5070916;28;20489;-68
2021/05/19 11:19:28;;;;;;;2.80;1.10;;;19.10;80.80;;;;;;5070094;28;20580;-68
2021/05/19 11:22:06;;;;;;;1.70;1.10;;;18.90;82.80;;;;;;5051821;28;20481;-68
2021/05/19 11:24:51;;;;;;;1.60;1.00;;;19.20;81.20;;;;;;5068094;28;20516;-69
2021/05/19 11:27:19;;;;;;;3.50;1.60;;;19.60;83.90;;;;;;5071136;28;20494;-68
2021/05/19 11:29:46;;;;;;;1.93;1.20;;;19.60;85.60;;;;;;5071961;28;20486;-67
2021/05/19 11:32:16;;;;;;;2.20;1.40;;;19.70;85.90;;;;;;5071522;28;20565;-68
2021/05/19 11:34:43;;;;;;;1.30;1.00;;;19.90;86.40;;;;;;5071581;28;20493;-68
2021/05/19 11:37:10;;;;;;;1.30;1.20;;;19.90;84.70;;;;;;5071008;28;21177;-68
2021/05/19 11:39:38;;;;;;;2.17;1.20;;;19.80;84.90;;;;;;5068589;28;20463;-68
2021/05/19 11:42:13;;;;;;;2.33;1.10;;;19.70;83.20;;;;;;5069067;28;20454;-68
2021/05/19 11:44:41;;;;;;;1.83;1.07;;;19.40;84.30;;;;;;5061585;28;20770;-68
2021/05/19 11:47:09;;;;;;;1.53;1.13;;;19.30;83.10;;;;;;5069026;28;20528;-69
2021/05/19 11:49:35;;;;;;;2.17;1.40;;;19.30;83.30;;;;;;5067801;28;20463;-68
2021/05/19 11:52:03;;;;;;;2.60;1.70;;;19.10;85.70;;;;;;5062142;28;20470;-68
2021/05/19 11:54:29;;;;;;;2.70;1.20;;;19.10;86.50;;;;;;5068489;28;20950;-67
2021/05/19 11:56:59;;;;;;;1.20;1.00;;;19.10;84.40;;;;;;5069686;28;20458;-67
2021/05/19 11:59:29;;;;;;;2.80;1.43;;;18.90;90.00;;;;;;5068236;28;20498;-67
2021/05/19 12:01:58;;;;;;;3.97;1.40;;;18.50;85.00;;;;;;5068638;28;20486;-67
2021/05/19 12:04:25;;;;;;;1.73;1.30;;;18.20;86.60;;;;;;5069608;28;20459;-68
2021/05/19 12:06:51;;;;;;;2.37;1.50;;;18.30;90.50;;;;;;5070987;28;20462;-69
2021/05/19 12:09:18;;;;;;;1.47;1.10;;;18.80;85.00;;;;;;5067612;28;20478;-68
2021/05/19 12:11:46;;;;;;;2.07;1.10;;;19.00;80.40;;;;;;5069400;28;20462;-68
2021/05/19 12:14:13;;;;;;;2.50;1.53;;;18.80;81.20;;;;;;5068979;28;20458;-68
2021/05/19 12:16:41;;;;;;;3.10;1.50;;;18.90;79.10;;;;;;5067098;28;20466;-67
2021/05/19 12:19:09;;;;;;;3.43;1.50;;;18.80;77.70;;;;;;5068694;28;20479;-67
2021/05/19 12:21:37;;;;;;;4.43;1.33;;;18.50;82.80;;;;;;5069286;28;20458;-66
2021/05/19 12:24:06;;;;;;;2.80;1.40;;;18.20;80.30;;;;;;5067846;28;20458;-66
2021/05/19 12:26:34;;;;;;;2.10;1.43;;;18.20;86.60;;;;;;5068886;28;20462;-67
2021/05/19 12:29:00;;;;;;;1.50;1.20;;;18.60;87.20;;;;;;5068705;28;21017;-67
2021/05/19 12:31:29;;;;;;;2.10;1.30;;;19.20;84.20;;;;;;5068675;28;20462;-67
2021/05/19 12:33:56;;;;;;;3.43;1.20;;;19.80;87.90;;;;;;5070456;28;20820;-68
2021/05/19 12:36:27;;;;;;;2.00;1.17;;;20.30;86.00;;;;;;5068354;28;20501;-67
2021/05/19 12:39:06;;;;;;;4.17;1.10;;;20.20;78.70;;;;;;5067757;28;20490;-67
2021/05/19 12:41:45;;;;;;;1.53;1.10;;;19.80;81.30;;;;;;5069323;28;20965;-67
2021/05/19 12:44:12;;;;;;;1.20;1.10;;;20.00;78.60;;;;;;5068717;28;20969;-67
2021/05/19 12:46:39;;;;;;;3.67;1.20;;;20.40;79.70;;;;;;5068753;28;20454;-68
2021/05/19 12:49:13;;;;;;;2.13;1.20;;;20.50;75.00;;;;;;5068153;28;20482;-67
2021/05/19 12:51:54;;;;;;;3.53;1.40;;;19.90;76.00;;;;;;5070478;28;20518;-67
2021/05/19 12:54:23;;;;;;;2.37;1.50;;;19.40;76.10;;;;;;5068096;28;20993;-67
2021/05/19 12:57:06;;;;;;;3.80;1.20;;;19.00;78.80;;;;;;5069487;28;20459;-67
2021/05/19 12:59:53;;;;;;;2.30;1.40;;;19.00;79.40;;;;;;5069955;28;20462;-67
2021/05/19 13:02:20;;;;;;;2.17;1.50;;;18.80;80.40;;;;;;5070167;28;20519;-68